Latest Weather Observations for Horsley Park

IDN60901

Issued at 11:55 pm EDT Monday 20 October 2014 (issued every 10 minutes, with the page automatically refreshed every 10 minutes)

About weather observations | Map of Sydney area stations | Latest observations for Sydney area | Other Formats
Station Details ID: 067119 Name: HORSLEY PARK EQUESTRIAN CENTRE AWS Lat: -33.85 Lon: 150.86 Height: 100.0 m
Data from the previous 72 hours. | See also: Recent months at Horsley Park
Date/Time
EDT
Tmp

°C
App
Tmp
°C
Dew
Point
°C
Rel
Hum
%
Delta-T

°C
Wind Press
QNH
hPa
Press
MSL
hPa
Rain
since
9 am
mm
Dir
 
Spd
km/h
Gust
km/h
Spd
kts
Gust
kts
20/11:30pm 14.1 14.3 12.0 87 1.1 NW 2 4 1 2 - - 0.0
20/11:00pm 14.1 14.0 12.0 87 1.1 SSW 4 6 2 3 - - 0.0
20/10:30pm 13.8 14.0 12.0 89 1.0 S 2 6 1 3 - - 0.0
20/10:00pm 13.7 13.5 11.8 88 1.0 ESE 4 9 2 5 - - 0.0
20/09:30pm 14.1 13.0 11.8 86 1.2 ESE 9 15 5 8 - - 0.0
20/09:00pm 15.4 14.1 9.1 66 3.2 SSE 6 15 3 8 - - 0.0
20/08:30pm 15.3 13.9 9.0 66 3.2 S 6 7 3 4 - - 0.0
20/08:00pm 15.4 14.1 9.1 66 3.2 S 6 7 3 4 - - 0.0
20/07:30pm 15.4 13.2 9.5 68 3.1 SSE 11 19 6 10 - - 0.0
20/07:00pm 15.4 12.9 9.7 69 3.0 SSE 13 24 7 13 - - 0.0
20/06:30pm 15.9 13.3 9.3 65 3.4 SSE 13 24 7 13 - - 0.0
20/06:00pm 16.0 13.0 9.2 64 3.5 SSE 15 26 8 14 - - 0.0
20/05:30pm 16.5 13.5 9.2 62 3.8 S 15 24 8 13 - - 0.0
20/05:00pm 16.4 13.1 9.6 64 3.6 SSE 17 26 9 14 - - 0.0
20/04:30pm 16.6 13.8 10.0 65 3.5 SSE 15 24 8 13 - - 0.0
20/04:00pm 16.6 13.5 10.2 66 3.4 SSE 17 30 9 16 - - 0.0
20/03:30pm 17.1 14.3 11.2 68 3.2 SSE 17 26 9 14 - - 0.0
20/03:00pm 16.5 13.0 10.8 69 3.1 SSE 20 30 11 16 - - 0.0
20/02:30pm 17.1 13.8 10.9 67 3.3 SSE 19 28 10 15 - - 0.0
20/02:00pm 17.8 15.1 11.8 68 3.3 SSE 17 30 9 16 - - 0.0
20/01:30pm 17.9 14.6 11.0 64 3.7 SSE 19 28 10 15 - - 0.0
20/01:00pm 18.7 15.7 10.8 60 4.3 SSE 17 28 9 15 - - 0.0
20/12:30pm 19.0 15.8 9.8 55 4.9 S 17 26 9 14 - - 0.0
20/12:00pm 17.8 14.2 9.7 59 4.3 S 19 32 10 17 - - 0.0
20/11:30am 17.3 13.7 9.7 61 4.0 S 19 30 10 16 - - 0.0
20/11:00am 17.4 13.9 10.1 62 3.9 S 19 32 10 17 - - 0.0
20/10:30am 18.3 15.2 10.2 59 4.3 S 17 30 9 16 - - 0.0
20/10:00am 17.8 15.1 10.4 62 4.0 S 15 24 8 13 - - 0.0
20/09:30am 17.5 14.0 10.1 62 3.9 S 19 32 10 17 - - 0.0
20/09:00am 17.7 14.6 10.3 62 4.0 S 17 30 9 16 - - 0.0
20/08:30am 17.7 14.2 10.3 62 4.0 SSE 19 30 10 16 - - 0.0
20/08:00am 17.6 14.1 10.9 65 3.6 S 20 39 11 21 - - 0.0
20/07:30am 17.1 13.9 11.4 69 3.1 S 19 35 10 19 - - 0.0
20/07:00am 16.6 13.6 12.0 74 2.5 S 19 35 10 19 - - 0.0
20/06:30am 16.6 13.7 12.9 79 2.1 S 20 33 11 18 - - 0.0
20/06:00am 15.0 13.3 12.3 84 1.5 SSE 13 20 7 11 - - 0.0
20/05:30am 14.2 14.8 11.9 86 1.2 CALM 0 0 0 0 - - 0.0
20/05:00am 14.2 14.9 12.1 87 1.1 CALM 0 0 0 0 - - 0.0
20/04:30am 14.3 15.1 12.7 90 0.9 CALM 0 0 0 0 - - 0.0
20/04:00am 13.7 14.3 11.8 88 1.0 CALM 0 0 0 0 - - 0.0
20/03:30am 13.9 14.5 11.9 88 1.1 CALM 0 0 0 0 - - 0.0
20/03:00am 14.7 15.5 12.4 86 1.3 CALM 0 0 0 0 - - 0.0
20/02:30am 14.3 14.9 12.0 86 1.2 CALM 0 0 0 0 - - 0.0
20/02:00am 14.6 15.3 12.1 85 1.4 CALM 0 0 0 0 - - 0.0
20/01:30am 14.7 15.3 12.0 84 1.5 CALM 0 0 0 0 - - 0.0
20/01:00am 15.0 15.6 12.0 82 1.6 CALM 0 0 0 0 - - 0.0
20/12:30am 15.4 16.1 12.2 81 1.8 CALM 0 0 0 0 - - 0.0
20/12:00am 15.7 16.4 12.1 79 2.0 W 0 0 0 0 - - 0.0
 
Date/Time
EDT
Tmp

°C
App
Tmp
°C
Dew
Point
°C
Rel
Hum
%
Delta-T

°C
Wind Press
QNH
hPa
Press
MSL
hPa
Rain
since
9 am
mm
Dir
 
Spd
km/h
Gust
km/h
Spd
kts
Gust
kts
19/11:30pm 15.7 16.4 12.1 79 2.0 CALM 0 0 0 0 - - 0.0
19/11:00pm 16.6 17.4 12.4 76 2.3 CALM 0 0 0 0 - - 0.0
19/10:30pm 17.0 17.7 12.3 74 2.6 CALM 0 0 0 0 - - 0.0
19/10:00pm 16.4 17.0 12.0 75 2.4 CALM 0 0 0 0 - - 0.0
19/09:30pm 17.2 17.9 12.1 72 2.8 CALM 0 0 0 0 - - 0.0
19/09:00pm 17.6 18.3 12.1 70 3.0 CALM 0 0 0 0 - - 0.0
19/08:30pm 19.4 20.0 11.9 62 4.2 CALM 0 0 0 0 - - 0.0
19/08:00pm 19.8 20.0 11.8 60 4.5 E 2 7 1 4 - - 0.0
19/07:30pm 21.1 21.3 12.0 56 5.1 E 2 7 1 4 - - 0.0
19/07:00pm 22.7 22.6 12.0 50 6.1 E 4 7 2 4 - - 0.0
19/06:30pm 24.5 23.1 12.1 46 7.1 E 11 17 6 9 - - 0.0
19/06:00pm 26.7 26.6 10.8 37 9.0 ENE 2 9 1 5 - - 0.0
19/05:30pm 27.6 26.9 8.5 30 10.4 NE 2 7 1 4 - - 0.0
19/05:00pm 27.9 27.5 8.2 29 10.7 CALM 0 6 0 3 - - 0.0
19/04:30pm 27.6 27.0 9.0 31 10.3 NE 2 7 1 4 - - 0.0
19/04:00pm 27.6 26.3 7.5 28 10.8 NNE 4 11 2 6 - - 0.0
19/03:30pm 27.4 26.1 7.8 29 10.6 NE 4 9 2 5 - - 0.0
19/03:00pm 27.3 26.1 8.2 30 10.4 NNW 4 11 2 6 - - 0.0
19/02:30pm 26.5 24.3 8.0 31 10.0 NNE 9 15 5 8 - - 0.0
19/02:00pm 26.6 24.3 7.6 30 10.2 NNE 9 20 5 11 - - 0.0
19/01:30pm 25.9 23.2 7.5 31 9.8 NNE 11 19 6 10 - - 0.0
19/01:00pm 24.7 22.2 8.2 35 8.8 N 11 17 6 9 - - 0.0
19/12:30pm 24.7 22.6 9.8 39 8.2 N 11 17 6 9 - - 0.0
19/12:00pm 23.2 21.1 9.9 43 7.3 N 11 19 6 10 - - 0.0
19/11:30am 21.6 19.5 9.8 47 6.4 N 11 17 6 9 - - 0.0
19/11:00am 20.9 19.3 10.1 50 5.9 N 9 19 5 10 - - 0.0
19/10:30am 19.6 17.9 9.8 53 5.3 N 9 13 5 7 - - 0.0
19/10:00am 17.6 16.6 9.0 57 4.5 NW 4 7 2 4 - - 0.0
19/09:30am 16.2 15.2 8.9 62 3.8 NNW 4 9 2 5 - - 0.0
19/09:00am 15.0 13.6 8.9 67 3.1 NNW 6 9 3 5 - - 0.0
19/08:30am 13.5 12.6 9.2 75 2.2 WNW 4 6 2 3 - - 0.0
19/08:00am 12.5 11.4 8.6 77 2.0 NW 4 7 2 4 - - 0.0
19/07:30am 11.8 10.4 8.8 82 1.5 NW 6 7 3 4 - - 0.0
19/07:00am 10.4 9.4 8.8 90 0.8 NW 4 7 2 4 - - 0.0
19/06:30am 8.8 7.8 7.4 91 0.7 WNW 2 6 1 3 - - 0.0
19/06:00am 9.5 7.9 8.1 91 0.7 WNW 6 9 3 5 - - 0.0
19/05:30am 8.9 7.9 7.5 91 0.7 NW 2 4 1 2 - - 0.0
19/05:00am 9.2 8.7 7.8 91 0.7 CALM 0 0 0 0 - - 0.0
19/04:30am 9.1 8.5 7.4 89 0.8 CALM 0 0 0 0 - - 0.0
19/04:00am 10.0 9.6 8.3 89 0.8 CALM 0 0 0 0 - - 0.0
19/03:30am 10.3 9.9 8.1 86 1.1 CALM 0 0 0 0 - - 0.0
19/03:00am 10.8 10.3 7.9 82 1.4 CALM 0 2 0 1 - - 0.0
19/02:30am 10.9 10.5 8.1 83 1.4 CALM 0 0 0 0 - - 0.0
19/02:00am 11.2 10.3 7.9 80 1.6 NNE 2 4 1 2 - - 0.0
19/01:30am 11.1 10.6 7.8 80 1.6 CALM 0 0 0 0 - - 0.0
19/01:00am 11.3 10.8 8.0 80 1.6 CALM 0 0 0 0 - - 0.0
19/12:30am 11.5 11.0 8.0 79 1.7 CALM 0 0 0 0 - - 0.0
19/12:00am 11.3 10.9 8.3 82 1.5 CALM 0 0 0 0 - - 0.0
 
Date/Time
EDT
Tmp

°C
App
Tmp
°C
Dew
Point
°C
Rel
Hum
%
Delta-T

°C
Wind Press
QNH
hPa
Press
MSL
hPa
Rain
since
9 am
mm
Dir
 
Spd
km/h
Gust
km/h
Spd
kts
Gust
kts
18/11:30pm 11.5 10.8 8.4 81 1.5 N 2 4 1 2 - - 0.0
18/11:00pm 11.6 10.8 8.3 80 1.6 N 2 4 1 2 - - 0.0
18/10:30pm 11.4 10.9 7.9 79 1.7 CALM 0 0 0 0 - - 0.0
18/10:00pm 12.1 11.8 8.6 79 1.7 CALM 0 0 0 0 - - 0.0
18/09:30pm 12.3 11.8 7.8 74 2.2 CALM 0 0 0 0 - - 0.0
18/09:00pm 14.0 13.5 7.8 66 3.1 CALM 0 4 0 2 - - 0.0
18/08:30pm 14.9 13.0 7.7 62 3.6 ENE 7 11 4 6 - - 0.0
18/08:00pm 15.5 12.5 7.8 60 3.9 ENE 13 19 7 10 - - 0.0
18/07:30pm 15.8 13.5 7.3 57 4.2 ENE 9 15 5 8 - - 0.0
18/07:00pm 16.7 14.0 7.4 54 4.7 ENE 11 19 6 10 - - 0.0
18/06:30pm 17.6 14.5 7.4 51 5.2 E 13 20 7 11 - - 0.0
18/06:00pm 18.5 15.5 7.9 50 5.4 E 13 20 7 11 - - 0.0
18/05:30pm 19.1 15.4 7.8 48 5.8 E 17 28 9 15 - - 0.0
18/05:00pm 20.1 16.9 8.4 47 6.1 E 15 24 8 13 - - 0.0
18/04:30pm 20.9 18.5 8.5 45 6.5 E 11 22 6 12 - - 0.0
18/04:00pm 20.8 18.5 7.4 42 6.9 ESE 9 17 5 9 - - 0.0
18/03:30pm 21.0 18.6 8.6 45 6.5 ESE 11 20 6 11 - - 0.0
18/03:00pm 21.7 20.0 6.0 36 7.9 W 4 7 2 4 - - 0.0
18/02:30pm 21.4 19.7 6.1 37 7.7 NW 4 9 2 5 - - 0.0
18/02:00pm 20.9 19.0 7.5 42 6.9 N 7 17 4 9 - - 0.0
18/01:30pm 20.5 18.3 6.1 39 7.2 N 7 11 4 6 - - 0.0
18/01:00pm 19.6 17.6 7.0 44 6.4 ENE 7 15 4 8 - - 0.0
18/12:30pm 19.6 17.8 8.0 47 6.0 ENE 7 13 4 7 - - 0.0
18/12:00pm 17.9 16.8 6.7 48 5.6 NNE 2 4 1 2 - - 0.0
18/11:30am 17.2 16.1 8.6 57 4.4 SW 4 11 2 6 - - 0.0
18/11:00am 17.0 15.8 7.9 55 4.6 NNW 4 7 2 4 - - 0.0
18/10:30am 17.1 15.8 7.7 54 4.8 NE 4 11 2 6 - - 0.0
18/10:00am 17.8 16.8 8.9 56 4.6 NNW 4 11 2 6 - - 0.0
18/09:30am 16.2 15.3 9.2 63 3.6 W 4 7 2 4 - - 0.0
18/09:00am 14.2 12.7 8.6 69 2.8 WSW 6 9 3 5 - - 0.0
18/08:30am 12.8 10.9 7.7 71 2.5 WSW 7 11 4 6 - - 0.0
18/08:00am 11.9 10.0 7.4 74 2.2 WSW 7 13 4 7 - - 0.0
18/07:30am 11.4 9.4 7.1 75 2.1 SW 7 11 4 6 - - 0.0
18/07:00am 10.9 8.4 6.6 75 2.0 SW 9 13 5 7 - - 0.0
18/06:30am 10.5 8.0 6.6 77 1.8 SW 9 11 5 6 - - 0.0
18/06:00am 10.4 7.9 6.5 77 1.8 SW 9 11 5 6 - - 0.0
18/05:30am 9.9 7.7 6.4 79 1.6 SSW 7 11 4 6 - - 0.0
18/05:00am 10.4 8.3 6.7 78 1.7 SSW 7 11 4 6 - - 0.0
18/04:30am 10.6 7.8 6.9 78 1.8 SSW 11 13 6 7 - - 0.0
18/04:00am 11.0 8.5 6.7 75 2.0 SW 9 13 5 7 - - 0.0
18/03:30am 11.3 8.5 6.8 74 2.1 SW 11 15 6 8 - - 0.0
18/03:00am 11.7 8.9 7.0 73 2.3 SW 11 13 6 7 - - 0.0
18/02:30am 12.2 9.4 7.1 71 2.5 SW 11 15 6 8 - - 0.0
18/02:00am 12.4 9.7 7.3 71 2.5 SW 11 17 6 9 - - 0.0
18/01:30am 12.2 9.5 7.3 72 2.4 SW 11 15 6 8 - - 0.0
18/01:00am 12.6 9.9 7.5 71 2.5 SW 11 15 6 8 - - 0.0
18/12:30am 12.6 10.3 7.5 71 2.5 SW 9 13 5 7 - - 0.0
18/12:00am 12.3 9.7 7.6 73 2.3 SW 11 15 6 8 - - 0.0

Latest Capital City Observations: Canberra | Sydney | Melbourne | Brisbane | Adelaide | Perth | Hobart | Darwin

Other Formats:

Comma delimited format used in spreadsheet applications
http://www.bom.gov.au/fwo/IDN60901/IDN60901.94760.axf

JavaScript Object Notation format (JSON) in row-major order
http://www.bom.gov.au/fwo/IDN60901/IDN60901.94760.json